Terminal Aerodrome Forecast
Issued by NWS

Home | Current Version | Previous Version | Text Only | Print | Product List | Glossary On
Versions: 1 2 3 4 5 6 7 8 9 10 11 12 13
000
FTUS43 KSGF 171700
TAFJLN
TAF
KJLN 171720Z 1718/1818 36006KT P6SM SCT200
     FM172000 VRB05KT P6SM FEW050 OVC100
     FM181000 VRB04KT 4SM BR FEW250
     FM181300 13005KT P6SM SKC=

USA.gov is the U.S. government's official web portal to all federal, state and local government web resources and services.